Time;durP1;ratioP1;P1;durP2;ratioP2;P2;SDS_P1;SDS_P2;PMS_P1;PMS_P2;Temp;Humidity;BMP_temperature;BMP_pressure;BME280_temperature;BME280_humidity;BME280_pressure;Samples;Min_cycle;Max_cycle;Signal;HPM_P1;HPM_P2
2021/05/27 00:00:43;;;;;;;;;;;13.20;93.40;;;;;;5114713;28;19954;-70
2021/05/27 00:03:10;;;;;;;;;;;13.20;93.40;;;;;;5116048;28;19955;-71
2021/05/27 00:05:37;;;;;;;;;;;13.30;93.30;;;;;;5115841;28;19914;-71
2021/05/27 00:08:04;;;;;;;;;;;13.30;92.80;;;;;;5115892;28;19953;-68
2021/05/27 00:10:31;;;;;;;;;;;13.30;93.00;;;;;;5115739;28;19943;-69
2021/05/27 00:12:59;;;;;;;;;;;13.40;92.30;;;;;;5115311;28;20006;-70
2021/05/27 00:15:27;;;;;;;;;;;13.40;92.50;;;;;;5115446;28;19984;-70
2021/05/27 00:17:53;;;;;;;;;;;13.50;92.50;;;;;;5115697;28;20278;-71
2021/05/27 00:20:20;;;;;;;;;;;13.60;92.60;;;;;;5115579;28;19908;-70
2021/05/27 00:22:48;;;;;;;;;;;13.60;92.40;;;;;;5115386;28;19908;-70
2021/05/27 00:25:14;;;;;;;;;;;13.60;92.10;;;;;;5115437;28;19912;-70
2021/05/27 00:27:42;;;;;;;;;;;13.70;91.90;;;;;;5115283;28;19908;-68
2021/05/27 00:30:09;;;;;;;;;;;13.80;91.90;;;;;;5115305;28;19915;-71
2021/05/27 00:32:36;;;;;;;;;;;13.70;91.40;;;;;;5115524;28;20362;-70
2021/05/27 00:35:03;;;;;;;;;;;13.80;91.50;;;;;;5115040;28;19911;-70
2021/05/27 00:37:30;;;;;;;;;;;13.80;91.10;;;;;;5115096;28;19912;-70
2021/05/27 00:39:57;;;;;;;;;;;13.90;90.80;;;;;;5115342;28;19908;-70
2021/05/27 00:42:26;;;;;;;;;;;13.90;91.20;;;;;;5115058;28;19908;-71
2021/05/27 00:45:04;;;;;;;;;;;14.00;91.20;;;;;;5113556;28;19924;-69
2021/05/27 00:47:31;;;;;;;;;;;14.00;90.80;;;;;;5115045;28;19908;-69
2021/05/27 00:49:58;;;;;;;;;;;14.00;91.10;;;;;;5114979;28;19953;-71
2021/05/27 00:52:24;;;;;;;;;;;14.00;91.40;;;;;;5114789;28;19951;-71
2021/05/27 00:54:53;;;;;;;;;;;14.10;91.10;;;;;;5114440;28;19999;-70
2021/05/27 00:57:29;;;;;;;;;;;14.20;90.60;;;;;;5114772;28;19908;-71
2021/05/27 00:59:56;;;;;;;;;;;14.40;90.70;;;;;;5114909;28;19908;-71
2021/05/27 01:02:23;;;;;;;;;;;14.60;90.50;;;;;;5114816;28;19915;-70
2021/05/27 01:04:50;;;;;;;;;;;15.00;89.30;;;;;;5113104;28;20050;-69
2021/05/27 01:07:17;;;;;;;;;;;15.20;90.00;;;;;;5114471;28;19915;-70
2021/05/27 01:09:43;;;;;;;;;;;15.40;89.70;;;;;;5113062;28;19908;-70
2021/05/27 01:12:10;;;;;;;;;;;15.60;89.70;;;;;;5113911;28;19961;-70
2021/05/27 01:17:25;;;;;;;;;;;15.80;88.00;;;;;;5081907;28;19973;-70
2021/05/27 01:19:52;;;;;;;;;;;15.70;87.80;;;;;;5093356;28;20068;-70
2021/05/27 01:22:22;;;;;;;;;;;15.80;86.70;;;;;;5098396;28;19908;-69
2021/05/27 01:24:49;;;;;;;;;;;15.50;88.20;;;;;;5114125;28;20410;-69
2021/05/27 01:27:16;;;;;;;;;;;15.40;87.00;;;;;;5114186;28;20269;-69
2021/05/27 01:29:43;;;;;;;;;;;15.30;87.60;;;;;;5114255;28;19908;-69
2021/05/27 01:32:10;;;;;;;;;;;15.20;87.40;;;;;;5114179;28;19955;-69
2021/05/27 01:34:37;;;;;;;;;;;15.20;88.10;;;;;;5113953;28;19908;-69
2021/05/27 01:37:04;;;;;;;;;;;15.20;87.90;;;;;;5113733;28;20049;-70
2021/05/27 01:39:30;;;;;;;;;;;15.10;86.60;;;;;;5114166;28;19952;-70
2021/05/27 01:41:57;;;;;;;;;;;15.10;87.80;;;;;;5113794;28;19908;-71
2021/05/27 01:44:24;;;;;;;;;;;15.10;87.80;;;;;;5113873;28;19932;-70
2021/05/27 01:46:50;;;;;;;;;;;15.10;88.60;;;;;;5113605;28;19947;-70
2021/05/27 01:49:17;;;;;;;;;;;15.20;86.90;;;;;;5113753;28;19998;-70
2021/05/27 01:51:53;;;;;;;;;;;15.30;87.40;;;;;;5113799;28;19912;-70
2021/05/27 01:54:19;;;;;;;;;;;15.30;86.90;;;;;;5113779;28;19919;-70
2021/05/27 01:56:46;;;;;;;;;;;15.30;87.40;;;;;;5113256;28;19916;-71
2021/05/27 01:59:13;;;;;;;;;;;15.30;86.60;;;;;;5113524;28;19908;-71
2021/05/27 02:01:39;;;;;;;;;;;15.40;86.40;;;;;;5113646;28;19958;-70
2021/05/27 02:04:06;;;;;;;;;;;15.40;86.50;;;;;;5113490;28;20377;-69
2021/05/27 02:06:33;;;;;;;;;;;15.30;86.70;;;;;;5113533;28;19908;-69
2021/05/27 02:09:11;;;;;;;;;;;15.40;87.50;;;;;;5113481;28;19908;-70
2021/05/27 02:11:39;;;;;;;;;;;15.40;87.30;;;;;;5112195;28;19931;-69
2021/05/27 02:14:07;;;;;;;;;;;15.40;87.10;;;;;;5113440;28;19912;-69
2021/05/27 02:16:37;;;;;;;;;;;15.40;86.00;;;;;;5113219;28;19926;-70
2021/05/27 02:19:04;;;;;;;;;;;15.50;85.70;;;;;;5113041;28;19912;-70
2021/05/27 02:21:30;;;;;;;;;;;15.50;85.40;;;;;;5113312;28;20258;-68
2021/05/27 02:23:59;;;;;;;;;;;15.60;84.80;;;;;;5112430;28;20443;-70
2021/05/27 02:26:26;;;;;;;;;;;15.50;85.10;;;;;;5113242;28;19908;-71
2021/05/27 02:28:53;;;;;;;;;;;15.50;86.50;;;;;;5112950;28;19907;-70
2021/05/27 02:31:21;;;;;;;;;;;15.60;85.40;;;;;;5113011;28;19961;-69
2021/05/27 02:33:48;;;;;;;;;;;15.70;85.20;;;;;;5113163;28;20283;-69
2021/05/27 02:36:15;;;;;;;;;;;15.70;85.40;;;;;;5113238;28;19927;-70
2021/05/27 02:38:41;;;;;;;;;;;15.70;84.60;;;;;;5113244;28;19931;-71
2021/05/27 02:41:08;;;;;;;;;;;15.70;85.90;;;;;;5112377;28;19908;-71
2021/05/27 02:43:35;;;;;;;;;;;15.70;84.60;;;;;;5111653;28;19931;-70
2021/05/27 02:46:02;;;;;;;;;;;15.70;85.40;;;;;;5113192;28;19983;-71
2021/05/27 02:48:31;;;;;;;;;;;15.80;84.70;;;;;;5113184;28;19908;-70
2021/05/27 02:50:59;;;;;;;;;;;15.80;85.00;;;;;;5112928;28;19907;-71
2021/05/27 02:53:25;;;;;;;;;;;15.90;84.10;;;;;;5113041;28;20270;-68
2021/05/27 02:55:52;;;;;;;;;;;15.90;84.90;;;;;;5112892;28;19959;-70
2021/05/27 02:58:20;;;;;;;;;;;16.00;84.80;;;;;;5113289;28;19907;-70
2021/05/27 03:00:47;;;;;;;;;;;16.00;84.80;;;;;;5112822;28;19908;-70
2021/05/27 03:03:16;;;;;;;;;;;16.00;84.20;;;;;;5112935;28;20358;-70
2021/05/27 03:05:45;;;;;;;;;;;15.90;83.10;;;;;;5112856;28;19915;-69
2021/05/27 03:08:12;;;;;;;;;;;16.00;83.60;;;;;;5112880;28;19915;-71
2021/05/27 03:10:39;;;;;;;;;;;16.00;84.90;;;;;;5094244;28;19966;-71
2021/05/27 03:13:07;;;;;;;;;;;16.00;84.80;;;;;;5078401;28;19996;-69
2021/05/27 03:15:34;;;;;;;;;;;16.10;83.30;;;;;;5071832;28;19912;-70
2021/05/27 03:18:05;;;;;;;;;;;16.10;84.20;;;;;;5071591;28;20023;-69
2021/05/27 03:20:32;;;;;;;;;;;16.20;84.90;;;;;;5071776;28;19927;-70
2021/05/27 03:22:59;;;;;;;;;;;16.20;83.80;;;;;;5071209;28;19908;-70
2021/05/27 03:25:26;;;;;;;;;;;16.30;83.10;;;;;;5071505;28;19909;-71
2021/05/27 03:27:53;;;;;;;;;;;16.40;83.60;;;;;;5071501;28;20305;-70
2021/05/27 03:30:20;;;;;;;;;;;16.30;84.20;;;;;;5071581;28;19995;-70
2021/05/27 03:32:47;;;;;;;;;;;16.40;84.70;;;;;;5071385;28;19947;-70
2021/05/27 03:35:13;;;;;;;;;;;16.40;84.10;;;;;;5073883;28;20408;-69
2021/05/27 03:37:40;;;;;;;;;;;16.50;83.70;;;;;;5075074;28;19955;-71
2021/05/27 03:40:12;;;;;;;;;;;16.40;83.90;;;;;;5075001;28;19908;-73
2021/05/27 03:42:39;;;;;;;;;;;16.50;84.20;;;;;;5074842;28;20007;-69
2021/05/27 03:45:12;;;;;;;;;;;16.50;84.20;;;;;;5074814;28;20453;-68
2021/05/27 03:47:39;;;;;;;;;;;16.40;84.30;;;;;;5075032;28;20023;-71
2021/05/27 03:50:07;;;;;;;;;;;16.40;84.80;;;;;;5074573;28;19909;-71
2021/05/27 03:52:34;;;;;;;;;;;16.30;84.90;;;;;;5075008;28;19994;-70
2021/05/27 03:55:01;;;;;;;;;;;16.40;84.10;;;;;;5074338;28;19923;-70
2021/05/27 03:57:28;;;;;;;;;;;16.30;84.90;;;;;;5107367;28;20007;-70
2021/05/27 04:02:45;;;;;;;;;;;16.40;84.30;;;;;;5074930;28;19924;-70
2021/05/27 04:08:17;;;;;;;;;;;16.40;85.60;;;;;;5092702;28;19912;-69
2021/05/27 04:10:44;;;;;;;;;;;16.40;83.90;;;;;;5077524;28;19912;-68
2021/05/27 04:13:11;;;;;;;;;;;16.40;84.60;;;;;;5074217;28;19909;-70
2021/05/27 04:15:38;;;;;;;;;;;16.50;84.00;;;;;;5089826;28;19923;-69
2021/05/27 04:18:05;;;;;;;;;;;16.60;84.20;;;;;;5111537;28;19957;-69
2021/05/27 04:20:39;;;;;;;;;;;16.50;83.60;;;;;;5115656;28;19908;-70
2021/05/27 04:23:07;;;;;;;;;;;16.50;84.50;;;;;;5115384;28;20358;-70
2021/05/27 04:25:34;;;;;;;;;;;16.50;84.40;;;;;;5115394;28;20269;-70
2021/05/27 04:28:01;;;;;;;;;;;16.50;84.50;;;;;;5115478;28;19907;-70
2021/05/27 04:30:28;;;;;;;;;;;16.50;85.00;;;;;;5115159;28;19933;-69
2021/05/27 04:33:07;;;;;;;;;;;16.50;86.10;;;;;;5115038;28;19912;-70
2021/05/27 04:35:35;;;;;;;;;;;16.50;86.30;;;;;;5115349;28;19911;-71
2021/05/27 04:38:07;;;;;;;;;;;16.40;85.40;;;;;;5114874;28;20388;-69
2021/05/27 04:40:34;;;;;;;;;;;16.40;85.80;;;;;;5114899;28;19907;-71
2021/05/27 04:43:01;;;;;;;;;;;16.40;85.00;;;;;;5114559;28;19949;-70
2021/05/27 04:45:27;;;;;;;;;;;16.50;85.50;;;;;;5114418;28;19947;-68
2021/05/27 04:47:54;;;;;;;;;;;16.50;84.80;;;;;;5114805;28;19977;-72
2021/05/27 04:50:24;;;;;;;;;;;16.50;85.50;;;;;;5114924;28;19908;-71
2021/05/27 04:52:51;;;;;;;;;;;16.60;85.50;;;;;;5114579;28;20316;-71
2021/05/27 04:55:19;;;;;;;;;;;16.60;85.70;;;;;;5114791;28;19919;-71
2021/05/27 04:57:45;;;;;;;;;;;16.60;85.90;;;;;;5114788;28;19956;-71
2021/05/27 05:00:16;;;;;;;;;;;16.60;86.10;;;;;;5114863;28;19946;-70
2021/05/27 05:02:43;;;;;;;;;;;16.60;85.10;;;;;;5114614;28;20270;-70
2021/05/27 05:05:11;;;;;;;;;;;16.60;85.30;;;;;;5114710;28;19912;-72
2021/05/27 05:07:39;;;;;;;;;;;16.60;85.10;;;;;;5114682;28;19915;-72
2021/05/27 05:10:06;;;;;;;;;;;16.70;85.60;;;;;;5114515;28;19908;-72
2021/05/27 05:12:52;;;;;;;;;;;16.70;85.00;;;;;;5113213;28;19907;-71
2021/05/27 05:15:19;;;;;;;;;;;16.70;84.10;;;;;;5114478;28;19912;-70
2021/05/27 05:17:50;;;;;;;;;;;16.70;83.50;;;;;;5114308;28;20008;-70
2021/05/27 05:20:18;;;;;;;;;;;16.70;84.50;;;;;;5114268;28;20417;-70
2021/05/27 05:22:45;;;;;;;;;;;16.70;83.70;;;;;;5114107;28;19955;-70
2021/05/27 05:25:12;;;;;;;;;;;16.80;84.20;;;;;;5114093;28;19930;-71
2021/05/27 05:27:38;;;;;;;;;;;16.70;85.00;;;;;;5114328;28;19914;-72
2021/05/27 05:30:06;;;;;;;;;;;16.70;84.90;;;;;;5114098;28;19927;-72
2021/05/27 05:32:33;;;;;;;;;;;16.70;84.30;;;;;;5114107;28;19914;-71
2021/05/27 05:35:00;;;;;;;;;;;16.70;83.90;;;;;;5113746;28;19908;-71
2021/05/27 05:37:27;;;;;;;;;;;16.70;84.10;;;;;;5114003;28;19912;-72
2021/05/27 05:39:54;;;;;;;;;;;16.70;85.50;;;;;;5113554;28;19927;-73
2021/05/27 05:42:21;;;;;;;;;;;16.70;85.00;;;;;;5113978;28;19953;-72
2021/05/27 05:44:47;;;;;;;;;;;16.60;84.70;;;;;;5113453;28;19926;-71
2021/05/27 05:47:14;;;;;;;;;;;16.70;84.40;;;;;;5113922;28;19947;-70
2021/05/27 05:49:41;;;;;;;;;;;16.70;84.60;;;;;;5113809;28;19907;-71
2021/05/27 05:52:08;;;;;;;;;;;16.60;83.90;;;;;;5113771;28;19986;-71
2021/05/27 05:54:34;;;;;;;;;;;16.70;84.00;;;;;;5113675;28;19912;-71
2021/05/27 05:57:01;;;;;;;;;;;16.70;83.50;;;;;;5113291;28;20350;-71
2021/05/27 05:59:28;;;;;;;;;;;16.60;83.80;;;;;;5113596;28;19915;-70
2021/05/27 06:01:55;;;;;;;;;;;16.60;84.50;;;;;;5113899;28;19965;-69
2021/05/27 06:04:22;;;;;;;;;;;16.60;85.20;;;;;;5113591;28;19908;-71
2021/05/27 06:06:51;;;;;;;;;;;16.50;86.00;;;;;;5113258;28;19908;-70
2021/05/27 06:09:18;;;;;;;;;;;16.50;85.90;;;;;;5113283;28;20006;-71
2021/05/27 06:11:45;;;;;;;;;;;16.40;85.90;;;;;;5113396;28;20011;-70
2021/05/27 06:14:11;;;;;;;;;;;16.40;86.60;;;;;;5113595;28;19930;-71
2021/05/27 06:16:38;;;;;;;;;;;16.40;86.20;;;;;;5113094;28;20389;-71
2021/05/27 06:19:05;;;;;;;;;;;16.40;85.20;;;;;;5113063;28;20006;-69
2021/05/27 06:21:32;;;;;;;;;;;16.40;85.70;;;;;;5113460;28;19908;-71
2021/05/27 06:23:59;;;;;;;;;;;16.40;86.30;;;;;;5113345;28;19908;-70
2021/05/27 06:26:26;;;;;;;;;;;16.40;86.00;;;;;;5113393;28;19908;-70
2021/05/27 06:28:53;;;;;;;;;;;16.30;86.60;;;;;;5113181;28;19961;-70
2021/05/27 06:31:20;;;;;;;;;;;16.30;87.40;;;;;;5113310;28;19954;-70
2021/05/27 06:33:46;;;;;;;;;;;16.20;87.40;;;;;;5113205;28;20005;-71
2021/05/27 06:36:13;;;;;;;;;;;16.20;87.50;;;;;;5113227;28;20343;-71
2021/05/27 06:38:40;;;;;;;;;;;16.10;88.00;;;;;;5113143;28;20282;-71
2021/05/27 06:41:07;;;;;;;;;;;16.10;88.30;;;;;;5112824;28;19908;-70
2021/05/27 06:43:34;;;;;;;;;;;16.10;88.40;;;;;;5112936;28;19919;-71
2021/05/27 06:46:01;;;;;;;;;;;16.00;89.20;;;;;;5113105;28;20298;-68
2021/05/27 06:48:28;;;;;;;;;;;15.90;88.00;;;;;;5113023;28;19908;-70
2021/05/27 06:50:54;;;;;;;;;;;15.90;88.50;;;;;;5112779;28;19912;-70
2021/05/27 06:53:21;;;;;;;;;;;15.90;88.70;;;;;;5113130;28;19915;-71
2021/05/27 06:55:48;;;;;;;;;;;15.90;89.00;;;;;;5112906;28;20000;-70
2021/05/27 06:58:17;;;;;;;;;;;15.90;88.80;;;;;;5113057;28;19939;-70
2021/05/27 07:00:44;;;;;;;;;;;15.80;89.00;;;;;;5112844;28;19914;-70
2021/05/27 07:03:17;;;;;;;;;;;15.80;89.50;;;;;;5112623;28;19915;-69
2021/05/27 07:05:44;;;;;;;;;;;15.70;89.50;;;;;;5111797;28;19977;-69
2021/05/27 07:08:10;;;;;;;;;;;15.70;89.50;;;;;;5112880;28;19911;-70
2021/05/27 07:10:37;;;;;;;;;;;15.70;90.10;;;;;;5115987;28;20323;-71
2021/05/27 07:13:06;;;;;;;;;;;15.60;90.30;;;;;;5116646;28;19990;-69
2021/05/27 07:15:34;;;;;;;;;;;15.50;90.50;;;;;;5116501;28;20288;-69
2021/05/27 07:18:00;;;;;;;;;;;15.50;90.30;;;;;;5116710;28;19907;-69
2021/05/27 07:20:28;;;;;;;;;;;15.50;90.80;;;;;;5116456;28;20407;-71
2021/05/27 07:22:55;;;;;;;;;;;15.40;90.20;;;;;;5116456;28;20522;-71
2021/05/27 07:25:23;;;;;;;;;;;15.40;90.40;;;;;;5116436;28;19907;-71
2021/05/27 07:27:51;;;;;;;;;;;15.40;90.40;;;;;;5116478;28;20333;-71
2021/05/27 07:30:18;;;;;;;;;;;15.30;90.30;;;;;;5116293;28;20258;-70
2021/05/27 07:32:45;;;;;;;;;;;15.30;90.40;;;;;;5116203;28;19941;-70
2021/05/27 07:35:12;;;;;;;;;;;15.30;90.90;;;;;;5116027;28;20361;-69
2021/05/27 07:37:39;;;;;;;;;;;15.20;91.30;;;;;;5116422;28;19908;-69
2021/05/27 07:40:06;;;;;;;;;;;15.20;90.50;;;;;;5114619;28;19908;-69
2021/05/27 07:42:34;;;;;;;;;;;15.10;90.80;;;;;;5114125;28;19963;-70
2021/05/27 07:45:01;;;;;;;;;;;15.20;90.60;;;;;;5114144;28;20005;-70
2021/05/27 07:47:29;;;;;;;;;;;15.10;90.70;;;;;;5093694;28;19912;-71
2021/05/27 07:49:56;;;;;;;;;;;15.20;90.40;;;;;;5093577;28;19912;-71
2021/05/27 07:52:23;;;;;;;;;;;15.10;90.00;;;;;;5093570;28;19994;-71
2021/05/27 07:54:52;;;;;;;;;;;15.10;90.00;;;;;;5092818;28;19912;-70
2021/05/27 07:57:19;;;;;;;;;;;15.10;90.10;;;;;;5093351;28;20294;-69
2021/05/27 07:59:45;;;;;;;;;;;15.20;90.00;;;;;;5093400;28;19912;-71
2021/05/27 08:02:12;;;;;;;;;;;15.20;89.90;;;;;;5093072;28;19908;-72
2021/05/27 08:04:42;;;;;;;;;;;15.20;90.60;;;;;;5093409;28;19927;-71
2021/05/27 08:07:09;;;;;;;;;;;15.20;89.60;;;;;;5092951;28;20287;-69
2021/05/27 08:09:36;;;;;;;;;;;15.10;89.80;;;;;;5093192;28;20337;-71
2021/05/27 08:12:03;;;;;;;;;;;15.10;89.90;;;;;;5093230;28;19954;-69
2021/05/27 08:14:30;;;;;;;;;;;15.10;90.20;;;;;;5093072;28;20335;-68
2021/05/27 08:16:56;;;;;;;;;;;15.10;90.10;;;;;;5092165;28;19916;-68
2021/05/27 08:19:23;;;;;;;;;;;15.10;90.40;;;;;;5092661;28;19947;-71
2021/05/27 08:21:51;;;;;;;;;;;15.10;90.50;;;;;;5091726;28;19995;-71
2021/05/27 08:24:17;;;;;;;;;;;15.00;89.80;;;;;;5092873;28;19908;-71
2021/05/27 08:26:44;;;;;;;;;;;15.10;90.00;;;;;;5092818;28;19973;-71
2021/05/27 08:29:11;;;;;;;;;;;15.00;90.10;;;;;;5092779;28;20367;-71
2021/05/27 08:31:40;;;;;;;;;;;15.00;89.70;;;;;;5092129;28;19912;-70
2021/05/27 08:34:07;;;;;;;;;;;15.00;90.60;;;;;;5092440;28;19961;-70
2021/05/27 08:36:34;;;;;;;;;;;15.10;89.90;;;;;;5092467;28;20050;-71
2021/05/27 08:39:01;;;;;;;;;;;15.00;89.60;;;;;;5092374;28;19915;-70
2021/05/27 08:41:27;;;;;;;;;;;15.00;90.10;;;;;;5092595;28;19908;-71
2021/05/27 08:43:54;;;;;;;;;;;15.00;90.00;;;;;;5092370;28;19920;-71
2021/05/27 08:46:24;;;;;;;;;;;15.00;90.20;;;;;;5092338;28;19908;-71
2021/05/27 08:48:51;;;;;;;;;;;15.00;89.50;;;;;;5092384;28;19934;-71
2021/05/27 08:51:18;;;;;;;;;;;15.00;90.80;;;;;;5092470;28;19908;-70
2021/05/27 08:53:45;;;;;;;;;;;15.00;89.70;;;;;;5092466;28;20557;-71
2021/05/27 08:56:12;;;;;;;;;;;15.00;89.70;;;;;;5124767;27;20385;-70
2021/05/27 08:58:44;;;;;;;;;;;14.90;90.00;;;;;;5091821;28;19947;-71
2021/05/27 09:01:10;;;;;;;;;;;14.90;90.40;;;;;;5092397;28;19927;-70
2021/05/27 09:03:41;;;;;;;;;;;14.90;90.50;;;;;;5092388;28;19908;-71
2021/05/27 09:06:09;;;;;;;;;;;14.80;90.30;;;;;;5093536;28;19953;-71
2021/05/27 09:08:38;;;;;;;;;;;14.80;90.10;;;;;;5094152;28;19908;-69
2021/05/27 09:11:08;;;;;;;;;;;14.80;90.80;;;;;;5093931;28;19912;-69
2021/05/27 09:13:36;;;;;;;;;;;14.80;90.30;;;;;;5094068;28;20019;-70
2021/05/27 09:16:06;;;;;;;;;;;14.80;90.30;;;;;;5094075;28;19916;-71
2021/05/27 09:18:37;;;;;;;;;;;14.70;90.30;;;;;;5094100;28;19915;-71
2021/05/27 09:21:04;;;;;;;;;;;14.70;90.30;;;;;;5093620;28;19916;-70
2021/05/27 09:23:31;;;;;;;;;;;14.70;90.30;;;;;;5093711;28;19908;-71
2021/05/27 09:26:16;;;;;;;;;;;14.70;90.30;;;;;;5093973;28;19915;-71
2021/05/27 09:28:43;;;;;;;;;;;14.60;90.80;;;;;;5093827;28;20269;-69
2021/05/27 09:31:11;;;;;;;;;;;14.60;90.50;;;;;;5093716;28;19908;-71
2021/05/27 09:33:40;;;;;;;;;;;14.60;90.70;;;;;;5093400;28;19908;-71
2021/05/27 09:36:08;;;;;;;;;;;14.60;90.70;;;;;;5093504;28;19916;-70
2021/05/27 09:38:38;;;;;;;;;;;14.60;90.70;;;;;;5093555;28;19919;-70
2021/05/27 09:41:15;;;;;;;;;;;14.50;90.80;;;;;;5093682;28;20329;-70
2021/05/27 09:43:42;;;;;;;;;;;14.50;91.00;;;;;;5092038;28;20516;-71
2021/05/27 09:46:09;;;;;;;;;;;14.40;91.10;;;;;;5092222;28;19927;-71
2021/05/27 09:48:36;;;;;;;;;;;14.40;91.10;;;;;;5093464;28;19916;-71
2021/05/27 09:51:03;;;;;;;;;;;14.40;90.90;;;;;;5093265;28;19908;-71
2021/05/27 09:53:32;;;;;;;;;;;14.40;91.60;;;;;;5093327;28;19954;-70
2021/05/27 09:55:59;;;;;;;;;;;14.40;91.20;;;;;;5093234;28;19912;-70
2021/05/27 09:58:26;;;;;;;;;;;14.40;91.60;;;;;;5077607;28;20362;-69
2021/05/27 10:00:54;;;;;;;;;;;14.40;91.20;;;;;;5072872;28;19912;-71
2021/05/27 10:03:25;;;;;;;;;;;14.30;91.50;;;;;;5072990;28;20003;-71
2021/05/27 10:05:52;;;;;;;;;;;14.30;91.90;;;;;;5072371;28;19961;-70
2021/05/27 10:08:20;;;;;;;;;;;14.30;91.80;;;;;;5072726;28;19955;-70
2021/05/27 10:10:48;;;;;;;;;;;14.30;91.60;;;;;;5072728;28;20347;-70
2021/05/27 10:13:16;;;;;;;;;;;14.20;91.60;;;;;;5073046;28;20099;-71
2021/05/27 10:15:46;;;;;;;;;;;14.20;92.00;;;;;;5072899;28;19966;-71
2021/05/27 10:18:16;;;;;;;;;;;14.20;91.90;;;;;;5072740;28;19938;-68
2021/05/27 10:20:44;;;;;;;;;;;14.10;91.90;;;;;;5072240;28;20393;-69
2021/05/27 10:23:10;;;;;;;;;;;14.10;92.00;;;;;;5072762;28;20003;-70
2021/05/27 10:25:37;;;;;;;;;;;14.10;91.80;;;;;;5072818;28;20363;-71
2021/05/27 10:28:09;;;;;;;;;;;14.10;92.30;;;;;;5072644;28;19908;-70
2021/05/27 10:30:37;;;;;;;;;;;14.10;92.70;;;;;;5072809;28;19908;-71
2021/05/27 10:33:06;;;;;;;;;;;14.00;92.30;;;;;;5072862;28;20005;-70
2021/05/27 10:35:48;;;;;;;;;;;14.00;92.30;;;;;;5072109;28;19913;-71
2021/05/27 10:38:16;;;;;;;;;;;14.00;92.20;;;;;;5072650;28;19916;-71
2021/05/27 10:40:43;;;;;;;;;;;14.00;92.00;;;;;;5072562;28;19954;-68
2021/05/27 10:43:12;;;;;;;;;;;13.90;92.10;;;;;;5072456;28;20389;-69
2021/05/27 10:45:56;;;;;;;;;;;14.00;92.20;;;;;;5076208;28;20328;-72
2021/05/27 10:48:24;;;;;;;;;;;14.00;92.60;;;;;;5076788;28;20041;-69
2021/05/27 10:50:55;;;;;;;;;;;14.00;92.50;;;;;;5075865;28;20035;-71
2021/05/27 10:53:42;;;;;;;;;;;14.00;92.80;;;;;;5076506;28;19923;-71
2021/05/27 10:56:16;;;;;;;;;;;13.90;92.10;;;;;;5076300;28;19961;-70
2021/05/27 10:58:46;;;;;;;;;;;13.80;92.00;;;;;;5076414;28;19916;-71
2021/05/27 11:01:17;;;;;;;;;;;13.80;92.30;;;;;;5076510;28;19915;-72
2021/05/27 11:03:48;;;;;;;;;;;13.90;92.00;;;;;;5076365;28;19916;-72
2021/05/27 11:06:21;;;;;;;;;;;13.80;92.10;;;;;;5075900;28;20359;-70
2021/05/27 11:08:48;;;;;;;;;;;13.80;92.70;;;;;;5076132;28;19909;-71
2021/05/27 11:11:32;;;;;;;;;;;13.80;92.30;;;;;;5076365;28;19912;-71
2021/05/27 11:14:17;;;;;;;;;;;13.70;92.10;;;;;;5076243;28;19916;-71
2021/05/27 11:17:05;;;;;;;;;;;13.70;92.00;;;;;;5076171;28;20283;-71
2021/05/27 11:19:48;;;;;;;;;;;13.70;92.50;;;;;;5075568;28;19915;-70
2021/05/27 11:22:31;;;;;;;;;;;13.70;92.00;;;;;;5075960;28;19912;-71
2021/05/27 11:25:17;;;;;;;;;;;13.60;92.20;;;;;;5076006;28;19908;-71
2021/05/27 11:27:51;;;;;;;;;;;13.60;92.70;;;;;;5076049;28;20421;-73
2021/05/27 11:30:18;;;;;;;;;;;13.60;92.30;;;;;;5075845;28;19916;-72
2021/05/27 11:32:45;;;;;;;;;;;13.60;92.20;;;;;;5075589;28;19908;-71
2021/05/27 11:35:12;;;;;;;;;;;13.60;92.80;;;;;;5075009;28;19938;-72
2021/05/27 11:37:39;;;;;;;;;;;13.60;92.50;;;;;;5075697;28;19912;-71
2021/05/27 11:40:07;;;;;;;;;;;13.50;92.60;;;;;;5075703;28;19955;-71
2021/05/27 11:42:37;;;;;;;;;;;13.60;92.50;;;;;;5075198;28;19916;-71
2021/05/27 11:45:08;;;;;;;;;;;13.60;92.50;;;;;;5075437;28;19917;-68
2021/05/27 11:47:35;;;;;;;;;;;13.60;92.80;;;;;;5071812;28;20337;-70
2021/05/27 11:50:10;;;;;;;;;;;13.50;92.40;;;;;;5073072;28;19948;-71
2021/05/27 11:52:37;;;;;;;;;;;13.50;92.50;;;;;;5073350;28;19991;-71
2021/05/27 11:55:05;;;;;;;;;;;13.50;92.50;;;;;;5072853;28;19974;-71
2021/05/27 11:57:44;;;;;;;;;;;13.40;92.60;;;;;;5073381;28;19912;-71
2021/05/27 12:00:13;;;;;;;;;;;13.30;92.70;;;;;;5073162;28;19912;-71
2021/05/27 12:02:47;;;;;;;;;;;13.40;93.00;;;;;;5073180;28;19908;-72
2021/05/27 12:05:33;;;;;;;;;;;13.40;92.80;;;;;;5072474;28;19934;-71
2021/05/27 12:08:04;;;;;;;;;;;13.30;92.80;;;;;;5072847;28;19908;-71
2021/05/27 12:10:32;;;;;;;;;;;13.30;92.80;;;;;;5073120;28;19954;-70
2021/05/27 12:12:59;;;;;;;;;;;13.30;92.70;;;;;;5072478;28;19990;-70
2021/05/27 12:15:26;;;;;;;;;;;13.30;92.70;;;;;;5072856;28;20301;-70
2021/05/27 12:17:56;;;;;;;;;;;13.30;93.30;;;;;;5072898;28;19952;-71
2021/05/27 12:20:33;;;;;;;;;;;13.30;93.00;;;;;;5072284;28;19915;-71
2021/05/27 12:23:04;;;;;;;;;;;13.20;93.10;;;;;;5072495;28;19909;-71
2021/05/27 12:25:32;;;;;;;;;;;13.20;93.20;;;;;;5072370;28;19944;-71
2021/05/27 12:28:00;;;;;;;;;;;13.20;93.10;;;;;;5072747;28;20007;-71
2021/05/27 12:30:27;;;;;;;;;;;13.20;93.50;;;;;;5072706;28;19909;-70
2021/05/27 12:32:55;;;;;;;;;;;13.10;93.30;;;;;;5072652;28;19952;-72
2021/05/27 12:35:23;;;;;;;;;;;13.10;93.40;;;;;;5071919;28;19920;-70
2021/05/27 12:37:53;;;;;;;;;;;13.10;93.40;;;;;;5072613;28;20003;-70
2021/05/27 12:40:24;;;;;;;;;;;13.10;93.50;;;;;;5072040;28;19912;-70
2021/05/27 12:42:51;;;;;;;;;;;13.10;93.40;;;;;;5072015;28;20026;-69
2021/05/27 12:45:28;;;;;;;;;;;13.00;93.60;;;;;;5072350;28;20469;-70
2021/05/27 12:48:07;;;;;;;;;;;13.00;94.10;;;;;;5072316;28;19920;-71
2021/05/27 12:50:35;;;;;;;;;;;13.10;93.90;;;;;;5071902;28;19908;-70
2021/05/27 12:53:03;;;;;;;;;;;13.00;94.10;;;;;;5071438;28;19915;-68
2021/05/27 12:55:32;;;;;;;;;;;13.00;94.10;;;;;;5071992;28;19952;-69
2021/05/27 12:57:59;;;;;;;;;;;13.00;93.90;;;;;;5072098;28;19912;-70
2021/05/27 13:00:27;;;;;;;;;;;13.00;94.20;;;;;;5072288;28;19912;-69
2021/05/27 13:02:59;;;;;;;;;;;13.00;93.90;;;;;;5071817;28;20334;-68
2021/05/27 13:05:26;;;;;;;;;;;13.00;94.40;;;;;;5103681;28;19986;-69
2021/05/27 13:08:02;;;;;;;;;;;13.00;94.40;;;;;;5071071;28;19977;-68
2021/05/27 13:10:30;;;;;;;;;;;13.00;94.20;;;;;;5071443;28;20367;-68
2021/05/27 13:12:57;;;;;;;;;;;12.90;94.20;;;;;;5071604;28;19965;-67
2021/05/27 13:15:24;;;;;;;;;;;13.00;94.70;;;;;;5071929;28;19916;-68
2021/05/27 13:18:06;;;;;;;;;;;13.00;94.70;;;;;;5071528;28;19916;-68
2021/05/27 13:20:51;;;;;;;;;;;13.00;94.30;;;;;;5104933;28;20363;-70
2021/05/27 13:23:22;;;;;;;;;;;12.90;94.40;;;;;;5071754;28;19974;-68
2021/05/27 13:25:48;;;;;;;;;;;12.90;94.60;;;;;;5072041;28;20015;-68
2021/05/27 13:28:28;;;;;;;;;;;12.90;94.60;;;;;;5072100;28;19959;-68
2021/05/27 13:30:56;;;;;;;;;;;12.80;94.90;;;;;;5072146;28;19916;-69
2021/05/27 13:33:23;;;;;;;;;;;12.80;95.00;;;;;;5073470;28;19916;-68
2021/05/27 13:36:00;;;;;;;;;;;12.80;94.90;;;;;;5074447;28;20043;-68
2021/05/27 13:38:29;;;;;;;;;;;12.80;95.10;;;;;;5075749;28;20283;-71
2021/05/27 13:40:57;;;;;;;;;;;12.80;95.00;;;;;;5076807;28;20290;-71
2021/05/27 13:43:33;;;;;;;;;;;12.80;95.30;;;;;;5077881;28;19992;-69
2021/05/27 13:46:07;;;;;;;;;;;12.80;95.20;;;;;;5083222;28;20332;-69
2021/05/27 13:48:35;;;;;;;;;;;12.80;95.30;;;;;;5078855;28;19908;-69
2021/05/27 13:51:02;;;;;;;;;;;12.70;95.50;;;;;;5071166;28;19908;-69
2021/05/27 13:53:29;;;;;;;;;;;12.80;95.40;;;;;;5071061;28;19979;-68
2021/05/27 13:55:57;;;;;;;;;;;12.70;95.50;;;;;;5071138;28;19935;-69
2021/05/27 13:58:25;;;;;;;;;;;12.80;96.00;;;;;;5070788;28;19924;-69
2021/05/27 14:00:52;;;;;;;;;;;12.80;96.50;;;;;;5070961;28;19912;-69
2021/05/27 14:03:22;;;;;;;;;;;12.80;95.80;;;;;;5071052;28;20359;-68
2021/05/27 14:05:48;;;;;;;;;;;12.80;95.80;;;;;;5071084;28;19920;-69
2021/05/27 14:08:17;;;;;;;;;;;12.80;96.00;;;;;;5070804;28;20329;-70
2021/05/27 14:10:44;;;;;;;;;;;12.70;95.90;;;;;;5070395;28;19924;-68
2021/05/27 14:13:10;;;;;;;;;;;12.70;95.90;;;;;;5070915;28;20275;-68
2021/05/27 14:15:37;;;;;;;;;;;12.70;96.10;;;;;;5070820;28;20352;-68
2021/05/27 14:18:04;;;;;;;;;;;12.70;96.10;;;;;;5071076;28;19966;-68
2021/05/27 14:20:31;;;;;;;;;;;12.70;96.20;;;;;;5070829;28;20035;-70
2021/05/27 14:22:58;;;;;;;;;;;12.70;96.60;;;;;;5070488;28;19913;-68
2021/05/27 14:25:25;;;;;;;;;;;12.70;96.20;;;;;;5070723;28;20003;-69
2021/05/27 14:27:51;;;;;;;;;;;12.70;96.50;;;;;;5070908;28;20438;-70
2021/05/27 14:30:18;;;;;;;;;;;12.70;96.50;;;;;;5070740;28;19930;-69
2021/05/27 14:32:45;;;;;;;;;;;12.70;96.30;;;;;;5070651;28;19912;-68